createdAt,value
2019-02-16T00:02:54.557Z,49.78
2019-02-16T00:06:00.333Z,49.16
2019-02-16T00:09:06.938Z,49.19
2019-02-16T00:12:13.629Z,49.34
2019-02-16T00:15:19.472Z,49.68
2019-02-16T00:18:25.267Z,50.14
2019-02-16T00:21:31.019Z,50.66
2019-02-16T00:24:36.884Z,50.45
2019-02-16T00:27:42.750Z,50.88
2019-02-16T00:30:48.532Z,50.81
2019-02-16T00:33:54.433Z,52.64
2019-02-16T00:37:00.197Z,51.86
2019-02-16T00:40:06.227Z,51.33
2019-02-16T00:43:12.003Z,51.54
2019-02-16T00:46:17.790Z,50.81
2019-02-16T00:49:23.615Z,50.60
2019-02-16T00:52:29.402Z,50.57
2019-02-16T00:55:35.214Z,50.35
2019-02-16T00:58:40.986Z,50.52
2019-02-16T01:01:46.980Z,50.14
2019-02-16T01:04:52.778Z,50.18
2019-02-16T01:07:58.525Z,50.21
2019-02-16T01:11:04.395Z,50.11
2019-02-16T01:14:10.164Z,51.70
2019-02-16T01:17:16.009Z,52.32
2019-02-16T01:20:21.881Z,51.99
2019-02-16T01:23:27.669Z,52.56
2019-02-16T01:26:33.442Z,53.49
2019-02-16T01:29:39.240Z,53.24
2019-02-16T01:32:44.998Z,54.47
2019-02-16T01:35:50.753Z,55.99
2019-02-16T01:38:56.505Z,54.55
2019-02-16T01:42:02.286Z,54.03
2019-02-16T01:45:09.661Z,54.05
2019-02-16T01:48:15.474Z,53.72
2019-02-16T01:51:21.269Z,53.56
2019-02-16T01:54:27.070Z,53.12
2019-02-16T01:57:32.812Z,53.23
2019-02-16T02:00:38.597Z,53.55
2019-02-16T02:03:44.370Z,53.44
2019-02-16T02:06:50.208Z,53.75
2019-02-16T02:09:55.977Z,53.89
2019-02-16T02:13:01.802Z,53.86
2019-02-16T02:16:07.592Z,53.63
2019-02-16T02:19:13.406Z,53.80
2019-02-16T02:22:19.171Z,53.32
2019-02-16T02:25:25.613Z,52.58
2019-02-16T02:28:31.370Z,52.41
2019-02-16T02:31:37.682Z,52.47
2019-02-16T02:34:43.474Z,51.79
2019-02-16T02:37:49.257Z,51.76
2019-02-16T02:40:55.040Z,51.29
2019-02-16T02:44:00.814Z,51.19
2019-02-16T02:47:06.671Z,50.66
2019-02-16T02:50:12.426Z,50.34
2019-02-16T02:53:18.219Z,50.19
2019-02-16T02:56:23.972Z,50.13
2019-02-16T02:59:29.768Z,49.40
2019-02-16T03:02:35.637Z,49.45
2019-02-16T03:05:41.459Z,48.95
2019-02-16T03:08:47.337Z,48.61
2019-02-16T03:11:53.163Z,48.97
2019-02-16T03:14:58.925Z,49.07
2019-02-16T03:18:04.795Z,48.65
2019-02-16T03:21:10.584Z,48.78
2019-02-16T03:24:16.369Z,49.09
2019-02-16T03:28:12.173Z,48.50
2019-02-16T03:32:00.754Z,48.68
2019-02-16T03:35:39.341Z,48.87
2019-02-16T03:39:17.732Z,48.74
2019-02-16T03:42:23.501Z,48.67
2019-02-16T03:45:29.288Z,48.30
2019-02-16T03:48:35.089Z,48.35
2019-02-16T03:51:40.895Z,49.21
2019-02-16T03:54:46.676Z,49.72
2019-02-16T03:57:52.437Z,49.48
2019-02-16T04:00:58.196Z,50.54
2019-02-16T04:04:04.039Z,49.71
2019-02-16T04:07:09.829Z,49.06
2019-02-16T04:10:15.579Z,49.11
2019-02-16T04:13:21.351Z,49.12
2019-02-16T04:16:27.130Z,48.91
2019-02-16T04:19:32.897Z,48.97
2019-02-16T04:22:38.727Z,48.97
2019-02-16T04:25:44.476Z,48.70
2019-02-16T04:28:50.364Z,48.95
2019-02-16T04:31:56.131Z,49.33
2019-02-16T04:35:01.911Z,49.42
2019-02-16T04:38:07.668Z,48.93
2019-02-16T04:41:13.542Z,49.40
2019-02-16T04:44:20.442Z,49.34
2019-02-16T04:47:26.203Z,49.16
2019-02-16T04:50:32.005Z,49.29
2019-02-16T04:53:37.853Z,49.54
2019-02-16T04:56:43.740Z,49.41
2019-02-16T04:59:49.550Z,49.70
2019-02-16T05:02:55.312Z,49.82
2019-02-16T05:06:01.111Z,49.64
2019-02-16T05:09:07.844Z,50.18
2019-02-16T05:12:13.633Z,50.35
2019-02-16T05:15:19.492Z,50.12
2019-02-16T05:18:25.255Z,50.08
2019-02-16T05:21:31.048Z,50.51
2019-02-16T05:24:36.888Z,50.29
2019-02-16T05:27:42.645Z,50.22
2019-02-16T05:30:48.392Z,50.56
2019-02-16T05:33:54.163Z,50.57
2019-02-16T05:36:59.934Z,50.38
2019-02-16T05:40:06.621Z,50.42
2019-02-16T05:43:12.389Z,50.27
2019-02-16T05:46:18.204Z,50.47
2019-02-16T05:49:23.997Z,50.66
2019-02-16T05:52:29.757Z,51.07
2019-02-16T05:55:35.589Z,51.17
2019-02-16T05:58:41.327Z,50.36
2019-02-16T06:01:53.530Z,50.07
2019-02-16T06:04:54.602Z,50.41
2019-02-16T06:08:00.464Z,50.23
2019-02-16T06:11:06.361Z,49.71
2019-02-16T06:14:12.132Z,50.04
2019-02-16T06:17:17.909Z,49.23
2019-02-16T06:20:23.749Z,48.45
2019-02-16T06:23:29.548Z,48.58
2019-02-16T06:26:35.366Z,48.11
2019-02-16T06:29:41.164Z,47.34
2019-02-16T06:32:46.953Z,47.68
2019-02-16T06:36:06.638Z,46.32
2019-02-16T06:39:12.439Z,45.33
2019-02-16T06:42:18.237Z,45.03
2019-02-16T06:45:24.006Z,44.39
2019-02-16T06:48:29.787Z,43.45
2019-02-16T06:51:35.566Z,44.17
2019-02-16T06:54:41.429Z,42.16
2019-02-16T06:57:49.840Z,42.59
2019-02-16T07:00:55.607Z,42.59
2019-02-16T07:04:01.384Z,42.38
2019-02-16T07:07:07.735Z,42.22
2019-02-16T07:10:13.552Z,41.43
2019-02-16T07:13:19.329Z,41.18
2019-02-16T07:16:49.771Z,40.03
2019-02-16T07:19:57.772Z,39.74
2019-02-16T07:23:03.557Z,40.03
2019-02-16T07:26:09.313Z,39.69
2019-02-16T07:29:15.151Z,39.20
2019-02-16T07:32:20.975Z,38.74
2019-02-16T07:35:26.735Z,38.01
2019-02-16T07:38:32.541Z,37.84
2019-02-16T07:41:38.351Z,37.62
2019-02-16T07:45:08.812Z,36.81
2019-02-16T07:48:27.772Z,36.52
2019-02-16T07:51:44.708Z,36.54
2019-02-16T07:55:09.324Z,36.41
2019-02-16T07:58:34.022Z,35.68
2019-02-16T08:02:05.560Z,35.07
2019-02-16T08:05:36.197Z,34.76
2019-02-16T08:08:56.034Z,34.82
2019-02-16T08:12:23.948Z,35.07
2019-02-16T08:15:47.170Z,35.08
2019-02-16T08:18:59.429Z,34.95
2019-02-16T08:22:24.076Z,34.74
2019-02-16T08:25:51.535Z,34.94
2019-02-16T08:29:11.285Z,34.63
2019-02-16T08:32:23.560Z,33.93
2019-02-16T08:35:56.994Z,33.74
2019-02-16T08:39:08.822Z,33.66
2019-02-16T08:42:36.506Z,33.71
2019-02-16T08:45:51.731Z,34.10
2019-02-16T08:49:31.812Z,32.99
2019-02-16T08:52:55.209Z,32.48
2019-02-16T08:56:38.246Z,32.53
2019-02-16T09:00:06.202Z,32.80
2019-02-16T09:03:29.341Z,31.98
2019-02-16T09:06:52.642Z,31.93
2019-02-16T09:10:15.940Z,32.11
2019-02-16T09:13:46.723Z,31.46
2019-02-16T09:17:14.400Z,31.44
2019-02-16T09:20:38.971Z,31.35
2019-02-16T09:24:12.606Z,30.20
2019-02-16T09:27:43.058Z,29.91
2019-02-16T09:31:07.662Z,31.09
2019-02-16T09:34:31.276Z,30.81
2019-02-16T09:38:05.264Z,29.79
2019-02-16T09:41:23.583Z,29.98
2019-02-16T09:44:54.067Z,29.20
2019-02-16T09:48:24.844Z,29.11
2019-02-16T09:51:48.119Z,28.59
2019-02-16T09:55:18.613Z,28.28
2019-02-16T09:58:34.543Z,28.68
2019-02-16T10:02:08.252Z,28.07
2019-02-16T10:05:31.662Z,28.60
2019-02-16T10:08:50.513Z,28.15
2019-02-16T10:12:08.474Z,28.10
2019-02-16T10:15:33.190Z,29.60
2019-02-16T10:18:46.512Z,28.70
2019-02-16T10:22:04.620Z,27.92
2019-02-16T10:25:39.360Z,27.75
2019-02-16T10:29:06.803Z,27.40
2019-02-16T10:32:37.196Z,27.71
2019-02-16T10:36:08.067Z,26.76
2019-02-16T10:39:41.772Z,27.99
2019-02-16T10:43:20.293Z,26.93
2019-02-16T10:46:50.798Z,26.81
2019-02-16T10:50:18.492Z,27.99
2019-02-16T10:54:01.286Z,27.68
2019-02-16T10:57:29.047Z,28.01
2019-02-16T11:01:00.305Z,26.68
2019-02-16T11:04:38.187Z,26.26
2019-02-16T11:07:56.177Z,25.93
2019-02-16T11:11:11.758Z,25.66
2019-02-16T11:14:30.734Z,25.84
2019-02-16T11:17:55.847Z,25.64
2019-02-16T11:21:32.981Z,26.23
2019-02-16T11:25:09.690Z,25.75
2019-02-16T11:28:46.602Z,26.47
2019-02-16T11:32:09.885Z,26.89
2019-02-16T11:35:43.483Z,28.00
2019-02-16T11:39:11.046Z,28.70
2019-02-16T11:42:23.356Z,28.06
2019-02-16T11:46:03.152Z,28.35
2019-02-16T11:49:25.161Z,27.74
2019-02-16T11:52:56.160Z,26.90
2019-02-16T11:56:11.874Z,26.19
2019-02-16T11:59:36.527Z,25.76
2019-02-16T12:03:19.162Z,26.59
2019-02-16T12:06:33.751Z,28.28
2019-02-16T12:10:01.488Z,27.94
2019-02-16T12:13:32.192Z,27.05
2019-02-16T12:16:55.474Z,28.03
2019-02-16T12:20:18.724Z,27.55
2019-02-16T12:23:33.559Z,27.37
2019-02-16T12:26:58.332Z,28.41
2019-02-16T12:30:26.263Z,27.79
2019-02-16T12:33:52.717Z,27.58
2019-02-16T12:37:16.185Z,28.37
2019-02-16T12:40:43.739Z,28.17
2019-02-16T12:44:02.401Z,29.75
2019-02-16T12:47:33.073Z,28.92
2019-02-16T12:50:59.505Z,28.05
2019-02-16T12:54:22.563Z,28.92
2019-02-16T12:57:50.114Z,29.34
2019-02-16T13:01:20.523Z,29.12
2019-02-16T13:04:45.120Z,29.30
2019-02-16T13:07:58.477Z,29.85
2019-02-16T13:11:26.279Z,30.43
2019-02-16T13:15:00.322Z,30.08
2019-02-16T13:18:30.904Z,30.20
2019-02-16T13:21:40.847Z,30.10
2019-02-16T13:24:53.886Z,29.44
2019-02-16T13:28:24.353Z,28.98
2019-02-16T13:31:40.446Z,28.27
2019-02-16T13:35:10.863Z,28.75
2019-02-16T13:38:30.317Z,28.48
2019-02-16T13:41:46.443Z,28.12
2019-02-16T13:45:07.545Z,28.21
2019-02-16T13:48:22.100Z,27.85
2019-02-16T13:51:37.005Z,27.66
2019-02-16T13:54:56.862Z,27.14
2019-02-16T13:58:20.129Z,27.40
2019-02-16T14:01:51.051Z,28.08
2019-02-16T14:05:12.176Z,27.25
2019-02-16T14:08:36.976Z,27.95
2019-02-16T14:12:07.448Z,28.05
2019-02-16T14:15:29.591Z,28.08
2019-02-16T14:18:35.454Z,29.31
2019-02-16T14:21:41.224Z,28.54
2019-02-16T14:24:50.283Z,29.55
2019-02-16T14:27:56.078Z,28.67
2019-02-16T14:31:01.870Z,28.69
2019-02-16T14:34:07.637Z,28.72
2019-02-16T14:37:41.704Z,29.27
2019-02-16T14:40:47.511Z,29.15
2019-02-16T14:43:53.345Z,29.59
2019-02-16T14:46:59.335Z,29.69
2019-02-16T14:50:05.527Z,30.37
2019-02-16T14:53:11.479Z,31.02
2019-02-16T14:56:17.262Z,30.86
2019-02-16T14:59:23.182Z,30.76
2019-02-16T15:02:28.981Z,30.46
2019-02-16T15:05:34.784Z,31.35
2019-02-16T15:08:41.658Z,31.37
2019-02-16T15:11:47.627Z,31.52
2019-02-16T15:14:53.583Z,31.88
2019-02-16T15:17:59.423Z,32.38
2019-02-16T15:21:05.241Z,32.33
2019-02-16T15:24:11.039Z,32.26
2019-02-16T15:27:16.867Z,32.45
2019-02-16T15:30:22.817Z,33.08
2019-02-16T15:33:28.617Z,33.46
2019-02-16T15:36:34.450Z,33.45
2019-02-16T15:39:40.254Z,34.17
2019-02-16T15:42:46.043Z,34.21
2019-02-16T15:45:51.842Z,34.50
2019-02-16T15:48:57.795Z,34.31
2019-02-16T15:52:03.531Z,34.95
2019-02-16T15:55:10.597Z,35.45
2019-02-16T15:58:16.385Z,35.17
2019-02-16T16:01:22.234Z,35.30
2019-02-16T16:04:28.094Z,35.18
2019-02-16T16:07:33.901Z,35.64
2019-02-16T16:10:45.380Z,36.04
2019-02-16T16:14:00.455Z,35.90
2019-02-16T16:17:24.231Z,36.49
2019-02-16T16:20:51.804Z,37.14
2019-02-16T16:24:22.522Z,37.44
2019-02-16T16:27:44.073Z,37.70
2019-02-16T16:31:01.737Z,38.56
2019-02-16T16:34:17.000Z,38.61
2019-02-16T16:37:44.439Z,38.75
2019-02-16T16:41:07.720Z,38.87
2019-02-16T16:44:29.857Z,38.68
2019-02-16T16:48:03.607Z,38.68
2019-02-16T16:51:17.548Z,39.67
2019-02-16T16:54:42.128Z,39.06
2019-02-16T16:58:05.798Z,39.17
2019-02-16T17:01:29.422Z,39.28
2019-02-16T17:04:54.149Z,39.17
2019-02-16T17:08:19.483Z,39.16
2019-02-16T17:11:44.140Z,39.06
2019-02-16T17:15:11.820Z,39.29
2019-02-16T17:18:30.415Z,39.08
2019-02-16T17:21:53.780Z,39.38
2019-02-16T17:25:24.185Z,39.05
2019-02-16T17:28:41.760Z,39.32
2019-02-16T17:32:07.086Z,39.43
2019-02-16T17:35:21.422Z,39.53
2019-02-16T17:38:33.231Z,39.84
2019-02-16T17:41:55.674Z,39.76
2019-02-16T17:45:20.290Z,39.96
2019-02-16T17:48:43.524Z,39.91
2019-02-16T17:52:10.912Z,39.98
2019-02-16T17:55:34.273Z,40.89
2019-02-16T17:58:59.014Z,40.69
2019-02-16T18:02:15.572Z,41.29
2019-02-16T18:05:39.104Z,40.72
2019-02-16T18:09:02.229Z,40.66
2019-02-16T18:12:37.825Z,40.49
2019-02-16T18:15:58.468Z,41.09
2019-02-16T18:19:09.570Z,41.33
2019-02-16T18:22:22.363Z,41.29
2019-02-16T18:25:44.361Z,41.27
2019-02-16T18:29:14.909Z,41.95
2019-02-16T18:32:38.934Z,41.73
2019-02-16T18:36:00.791Z,42.27
2019-02-16T18:39:30.227Z,42.31
2019-02-16T18:42:53.857Z,42.61
2019-02-16T18:46:21.358Z,42.85
2019-02-16T18:49:44.946Z,44.05
2019-02-16T18:53:21.656Z,44.49
2019-02-16T18:56:55.361Z,44.07
2019-02-16T19:00:25.803Z,45.98
2019-02-16T19:03:50.448Z,47.41
2019-02-16T19:07:01.705Z,46.21
2019-02-16T19:10:38.696Z,46.10
2019-02-16T19:13:55.313Z,45.85
2019-02-16T19:17:29.522Z,46.95
2019-02-16T19:20:49.009Z,47.09
2019-02-16T19:24:01.152Z,47.19
2019-02-16T19:27:25.874Z,47.66
2019-02-16T19:30:45.720Z,47.66
2019-02-16T19:34:13.414Z,47.71
2019-02-16T19:37:34.101Z,47.78
2019-02-16T19:40:46.497Z,48.07
2019-02-16T19:44:14.976Z,47.24
2019-02-16T19:47:32.125Z,46.63
2019-02-16T19:51:06.037Z,47.34
2019-02-16T19:54:30.661Z,47.65
2019-02-16T19:57:53.767Z,47.93
2019-02-16T20:01:24.612Z,47.00
2019-02-16T20:04:50.160Z,47.59
2019-02-16T20:08:20.848Z,47.72
2019-02-16T20:11:48.716Z,47.07
2019-02-16T20:15:04.365Z,47.36
2019-02-16T20:18:18.090Z,47.25
2019-02-16T20:22:01.316Z,48.55
2019-02-16T20:25:30.063Z,49.43
2019-02-16T20:28:57.461Z,49.02
2019-02-16T20:32:18.793Z,47.91
2019-02-16T20:35:49.739Z,47.60
2019-02-16T20:39:20.248Z,48.69
2019-02-16T20:42:36.435Z,48.91
2019-02-16T20:45:55.363Z,48.53
2019-02-16T20:49:20.085Z,49.86
2019-02-16T20:52:48.024Z,49.07
2019-02-16T20:56:12.639Z,48.89
2019-02-16T20:59:38.117Z,48.56
2019-02-16T21:03:05.515Z,47.99
2019-02-16T21:06:30.171Z,47.77
2019-02-16T21:10:13.338Z,49.45
2019-02-16T21:13:41.028Z,47.92
2019-02-16T21:17:23.853Z,47.96
2019-02-16T21:20:47.308Z,47.82
2019-02-16T21:24:14.931Z,47.96
2019-02-16T21:27:57.721Z,48.41
2019-02-16T21:31:08.496Z,47.76
2019-02-16T21:34:31.730Z,47.59
2019-02-16T21:37:59.121Z,47.29
2019-02-16T21:41:29.860Z,47.46
2019-02-16T21:44:44.282Z,47.80
2019-02-16T21:48:18.338Z,48.01
2019-02-16T21:51:41.785Z,48.46
2019-02-16T21:54:59.589Z,49.01
2019-02-16T21:58:11.352Z,48.90
2019-02-16T22:01:30.413Z,48.30
2019-02-16T22:04:53.906Z,48.07
2019-02-16T22:08:24.337Z,48.66
2019-02-16T22:11:36.849Z,48.59
2019-02-16T22:14:42.659Z,48.18
2019-02-16T22:17:49.563Z,48.47
2019-02-16T22:20:55.358Z,49.29
2019-02-16T22:24:01.281Z,48.57
2019-02-16T22:27:07.082Z,47.84
2019-02-16T22:30:13.113Z,48.01
2019-02-16T22:33:18.901Z,48.71
2019-02-16T22:36:24.687Z,48.79
2019-02-16T22:39:30.467Z,49.76
2019-02-16T22:42:36.279Z,48.78
2019-02-16T22:45:42.090Z,48.24
2019-02-16T22:48:47.892Z,48.11
2019-02-16T22:51:53.803Z,48.00
2019-02-16T22:55:00.759Z,48.07
2019-02-16T22:58:06.582Z,48.61
2019-02-16T23:01:12.703Z,48.44
2019-02-16T23:04:18.825Z,48.67
2019-02-16T23:07:25.760Z,48.27
2019-02-16T23:10:31.949Z,48.12
2019-02-16T23:13:37.746Z,48.28
2019-02-16T23:16:43.770Z,48.16
2019-02-16T23:19:49.548Z,48.03
2019-02-16T23:22:55.435Z,47.92
2019-02-16T23:26:01.330Z,47.96
2019-02-16T23:29:07.268Z,48.17
2019-02-16T23:32:13.240Z,48.22
2019-02-16T23:35:19.018Z,47.95
2019-02-16T23:38:24.799Z,47.59
2019-02-16T23:41:30.569Z,47.55
2019-02-16T23:44:36.414Z,47.96
2019-02-16T23:47:42.206Z,48.38
2019-02-16T23:50:47.996Z,47.84
2019-02-16T23:53:53.761Z,48.48
2019-02-16T23:56:59.558Z,48.00
